sensor_id;sensor_type;location;lat;lon;timestamp;P1;durP1;ratioP1;P2;durP2;ratioP2
80411;SDS011;69749;42.684;23.360;2023-07-31T00:01:17;4.20;;;3.30;;
80411;SDS011;69749;42.684;23.360;2023-07-31T00:03:43;3.95;;;3.30;;
80411;SDS011;69749;42.684;23.360;2023-07-31T00:06:08;4.68;;;3.40;;
80411;SDS011;69749;42.684;23.360;2023-07-31T00:08:33;3.90;;;3.22;;
80411;SDS011;69749;42.684;23.360;2023-07-31T00:10:59;3.47;;;2.88;;
80411;SDS011;69749;42.684;23.360;2023-07-31T00:13:24;3.80;;;3.40;;
80411;SDS011;69749;42.684;23.360;2023-07-31T00:15:50;4.78;;;3.22;;
80411;SDS011;69749;42.684;23.360;2023-07-31T00:18:15;4.35;;;3.38;;
80411;SDS011;69749;42.684;23.360;2023-07-31T00:20:40;4.00;;;3.28;;
80411;SDS011;69749;42.684;23.360;2023-07-31T00:23:06;3.67;;;3.00;;
80411;SDS011;69749;42.684;23.360;2023-07-31T00:25:31;4.00;;;3.50;;
80411;SDS011;69749;42.684;23.360;2023-07-31T00:27:57;4.18;;;3.50;;
80411;SDS011;69749;42.684;23.360;2023-07-31T00:30:22;4.20;;;3.58;;
80411;SDS011;69749;42.684;23.360;2023-07-31T00:32:50;4.47;;;3.20;;
80411;SDS011;69749;42.684;23.360;2023-07-31T00:35:15;3.97;;;3.30;;
80411;SDS011;69749;42.684;23.360;2023-07-31T00:37:41;4.90;;;3.67;;
80411;SDS011;69749;42.684;23.360;2023-07-31T00:40:06;4.00;;;3.60;;
80411;SDS011;69749;42.684;23.360;2023-07-31T00:42:32;4.32;;;3.70;;
80411;SDS011;69749;42.684;23.360;2023-07-31T00:44:58;4.18;;;3.78;;
80411;SDS011;69749;42.684;23.360;2023-07-31T00:47:23;4.85;;;4.30;;
80411;SDS011;69749;42.684;23.360;2023-07-31T00:49:48;4.75;;;4.05;;
80411;SDS011;69749;42.684;23.360;2023-07-31T00:52:14;4.13;;;3.72;;
80411;SDS011;69749;42.684;23.360;2023-07-31T00:54:40;5.18;;;4.20;;
80411;SDS011;69749;42.684;23.360;2023-07-31T00:57:05;5.28;;;4.47;;
80411;SDS011;69749;42.684;23.360;2023-07-31T00:59:33;6.15;;;5.10;;
80411;SDS011;69749;42.684;23.360;2023-07-31T01:01:58;5.38;;;4.82;;
80411;SDS011;69749;42.684;23.360;2023-07-31T01:04:23;5.82;;;4.80;;
80411;SDS011;69749;42.684;23.360;2023-07-31T01:07:04;7.50;;;5.35;;
80411;SDS011;69749;42.684;23.360;2023-07-31T01:12:20;8.60;;;6.65;;
80411;SDS011;69749;42.684;23.360;2023-07-31T01:17:26;8.65;;;7.18;;
80411;SDS011;69749;42.684;23.360;2023-07-31T01:19:51;10.93;;;7.95;;
80411;SDS011;69749;42.684;23.360;2023-07-31T01:25:32;10.90;;;8.55;;
80411;SDS011;69749;42.684;23.360;2023-07-31T01:31:24;14.25;;;9.75;;
80411;SDS011;69749;42.684;23.360;2023-07-31T01:33:52;12.55;;;10.15;;
80411;SDS011;69749;42.684;23.360;2023-07-31T01:36:19;13.25;;;11.02;;
80411;SDS011;69749;42.684;23.360;2023-07-31T01:38:45;14.25;;;11.15;;
80411;SDS011;69749;42.684;23.360;2023-07-31T01:41:10;13.60;;;10.93;;
80411;SDS011;69749;42.684;23.360;2023-07-31T01:43:36;15.40;;;11.75;;
80411;SDS011;69749;42.684;23.360;2023-07-31T01:46:01;15.60;;;12.52;;
80411;SDS011;69749;42.684;23.360;2023-07-31T01:48:26;17.08;;;13.30;;
80411;SDS011;69749;42.684;23.360;2023-07-31T01:50:52;17.65;;;14.23;;
80411;SDS011;69749;42.684;23.360;2023-07-31T01:53:17;17.90;;;14.00;;
80411;SDS011;69749;42.684;23.360;2023-07-31T01:55:43;21.02;;;16.15;;
80411;SDS011;69749;42.684;23.360;2023-07-31T01:58:09;21.50;;;16.45;;
80411;SDS011;69749;42.684;23.360;2023-07-31T02:00:34;24.90;;;17.50;;
80411;SDS011;69749;42.684;23.360;2023-07-31T02:03:00;25.67;;;18.65;;
80411;SDS011;69749;42.684;23.360;2023-07-31T02:05:25;22.60;;;17.38;;
80411;SDS011;69749;42.684;23.360;2023-07-31T02:07:51;23.27;;;16.88;;
80411;SDS011;69749;42.684;23.360;2023-07-31T02:10:16;20.27;;;16.23;;
80411;SDS011;69749;42.684;23.360;2023-07-31T02:12:41;23.75;;;16.42;;
80411;SDS011;69749;42.684;23.360;2023-07-31T02:15:07;19.52;;;15.65;;
80411;SDS011;69749;42.684;23.360;2023-07-31T02:17:33;19.40;;;15.25;;
80411;SDS011;69749;42.684;23.360;2023-07-31T02:19:58;21.42;;;16.50;;
80411;SDS011;69749;42.684;23.360;2023-07-31T02:22:23;23.20;;;17.40;;
80411;SDS011;69749;42.684;23.360;2023-07-31T02:24:49;20.55;;;15.00;;
80411;SDS011;69749;42.684;23.360;2023-07-31T02:27:14;21.73;;;15.57;;
80411;SDS011;69749;42.684;23.360;2023-07-31T02:29:39;24.02;;;17.52;;
80411;SDS011;69749;42.684;23.360;2023-07-31T02:32:05;21.95;;;15.82;;
80411;SDS011;69749;42.684;23.360;2023-07-31T02:34:30;21.90;;;16.05;;
80411;SDS011;69749;42.684;23.360;2023-07-31T02:36:56;22.50;;;16.35;;
80411;SDS011;69749;42.684;23.360;2023-07-31T02:39:21;21.48;;;16.23;;
80411;SDS011;69749;42.684;23.360;2023-07-31T02:41:47;20.92;;;16.55;;
80411;SDS011;69749;42.684;23.360;2023-07-31T02:44:12;21.80;;;16.13;;
80411;SDS011;69749;42.684;23.360;2023-07-31T02:46:39;20.40;;;16.77;;
80411;SDS011;69749;42.684;23.360;2023-07-31T02:49:05;21.77;;;16.23;;
80411;SDS011;69749;42.684;23.360;2023-07-31T02:51:30;20.45;;;15.80;;
80411;SDS011;69749;42.684;23.360;2023-07-31T02:53:56;20.90;;;16.27;;
80411;SDS011;69749;42.684;23.360;2023-07-31T02:56:21;22.65;;;17.23;;
80411;SDS011;69749;42.684;23.360;2023-07-31T02:58:47;23.83;;;17.27;;
80411;SDS011;69749;42.684;23.360;2023-07-31T03:01:12;22.65;;;17.38;;
80411;SDS011;69749;42.684;23.360;2023-07-31T03:03:37;21.58;;;16.10;;
80411;SDS011;69749;42.684;23.360;2023-07-31T03:06:03;25.55;;;17.08;;
80411;SDS011;69749;42.684;23.360;2023-07-31T03:08:28;22.33;;;17.00;;
80411;SDS011;69749;42.684;23.360;2023-07-31T03:10:54;23.40;;;17.55;;
80411;SDS011;69749;42.684;23.360;2023-07-31T03:13:19;21.13;;;16.90;;
80411;SDS011;69749;42.684;23.360;2023-07-31T03:15:45;22.08;;;17.58;;
80411;SDS011;69749;42.684;23.360;2023-07-31T03:18:10;22.70;;;17.35;;
80411;SDS011;69749;42.684;23.360;2023-07-31T03:20:35;23.35;;;17.67;;
80411;SDS011;69749;42.684;23.360;2023-07-31T03:23:02;22.70;;;16.58;;
80411;SDS011;69749;42.684;23.360;2023-07-31T03:25:27;21.45;;;17.80;;
80411;SDS011;69749;42.684;23.360;2023-07-31T03:27:53;23.88;;;17.80;;
80411;SDS011;69749;42.684;23.360;2023-07-31T03:30:18;26.65;;;17.92;;
80411;SDS011;69749;42.684;23.360;2023-07-31T03:32:43;24.20;;;18.75;;
80411;SDS011;69749;42.684;23.360;2023-07-31T03:35:09;22.40;;;17.13;;
80411;SDS011;69749;42.684;23.360;2023-07-31T03:37:34;23.67;;;17.70;;
80411;SDS011;69749;42.684;23.360;2023-07-31T03:40:00;23.23;;;16.65;;
80411;SDS011;69749;42.684;23.360;2023-07-31T03:42:25;23.42;;;17.30;;
80411;SDS011;69749;42.684;23.360;2023-07-31T03:44:51;24.75;;;18.90;;
80411;SDS011;69749;42.684;23.360;2023-07-31T03:47:16;22.98;;;17.05;;
80411;SDS011;69749;42.684;23.360;2023-07-31T03:49:41;24.77;;;17.17;;
80411;SDS011;69749;42.684;23.360;2023-07-31T03:52:07;24.95;;;17.08;;
80411;SDS011;69749;42.684;23.360;2023-07-31T03:54:32;26.10;;;17.90;;
80411;SDS011;69749;42.684;23.360;2023-07-31T03:57:01;21.75;;;16.80;;
80411;SDS011;69749;42.684;23.360;2023-07-31T03:59:28;24.17;;;17.40;;
80411;SDS011;69749;42.684;23.360;2023-07-31T04:01:54;25.63;;;17.08;;
80411;SDS011;69749;42.684;23.360;2023-07-31T04:04:19;27.98;;;17.33;;
80411;SDS011;69749;42.684;23.360;2023-07-31T04:06:44;26.95;;;17.55;;
80411;SDS011;69749;42.684;23.360;2023-07-31T04:09:10;24.25;;;18.10;;
80411;SDS011;69749;42.684;23.360;2023-07-31T04:11:35;25.38;;;17.15;;
80411;SDS011;69749;42.684;23.360;2023-07-31T04:14:01;27.42;;;18.08;;
80411;SDS011;69749;42.684;23.360;2023-07-31T04:16:26;28.83;;;19.90;;
80411;SDS011;69749;42.684;23.360;2023-07-31T04:18:51;29.60;;;17.30;;
80411;SDS011;69749;42.684;23.360;2023-07-31T04:21:17;29.17;;;19.35;;
80411;SDS011;69749;42.684;23.360;2023-07-31T04:23:42;27.13;;;19.33;;
80411;SDS011;69749;42.684;23.360;2023-07-31T04:26:08;25.92;;;17.48;;
80411;SDS011;69749;42.684;23.360;2023-07-31T04:28:33;25.77;;;18.17;;
80411;SDS011;69749;42.684;23.360;2023-07-31T04:30:58;27.45;;;18.92;;
80411;SDS011;69749;42.684;23.360;2023-07-31T04:33:24;28.85;;;19.73;;
80411;SDS011;69749;42.684;23.360;2023-07-31T04:35:50;27.75;;;18.63;;
80411;SDS011;69749;42.684;23.360;2023-07-31T04:38:17;26.88;;;18.77;;
80411;SDS011;69749;42.684;23.360;2023-07-31T04:40:44;29.77;;;18.85;;
80411;SDS011;69749;42.684;23.360;2023-07-31T04:43:09;24.80;;;17.83;;
80411;SDS011;69749;42.684;23.360;2023-07-31T04:45:35;25.98;;;18.15;;
80411;SDS011;69749;42.684;23.360;2023-07-31T04:48:00;26.48;;;18.15;;
80411;SDS011;69749;42.684;23.360;2023-07-31T04:50:25;25.67;;;17.92;;
80411;SDS011;69749;42.684;23.360;2023-07-31T04:52:51;23.55;;;17.00;;
80411;SDS011;69749;42.684;23.360;2023-07-31T04:55:16;23.33;;;17.35;;
80411;SDS011;69749;42.684;23.360;2023-07-31T04:57:42;21.98;;;16.00;;
80411;SDS011;69749;42.684;23.360;2023-07-31T05:00:07;21.60;;;16.70;;
80411;SDS011;69749;42.684;23.360;2023-07-31T05:02:33;26.25;;;17.90;;
80411;SDS011;69749;42.684;23.360;2023-07-31T05:04:58;26.65;;;18.80;;
80411;SDS011;69749;42.684;23.360;2023-07-31T05:07:24;24.85;;;16.98;;
80411;SDS011;69749;42.684;23.360;2023-07-31T05:09:49;21.83;;;16.88;;
80411;SDS011;69749;42.684;23.360;2023-07-31T05:12:15;22.52;;;16.23;;
80411;SDS011;69749;42.684;23.360;2023-07-31T05:14:40;22.30;;;16.20;;
80411;SDS011;69749;42.684;23.360;2023-07-31T05:17:05;22.75;;;16.50;;
80411;SDS011;69749;42.684;23.360;2023-07-31T05:19:31;22.55;;;16.55;;
80411;SDS011;69749;42.684;23.360;2023-07-31T05:21:56;18.98;;;15.38;;
80411;SDS011;69749;42.684;23.360;2023-07-31T05:24:22;20.48;;;15.93;;
80411;SDS011;69749;42.684;23.360;2023-07-31T05:26:47;18.15;;;14.50;;
80411;SDS011;69749;42.684;23.360;2023-07-31T05:29:12;19.40;;;13.85;;
80411;SDS011;69749;42.684;23.360;2023-07-31T05:31:38;16.83;;;12.85;;
80411;SDS011;69749;42.684;23.360;2023-07-31T05:34:03;20.30;;;15.13;;
80411;SDS011;69749;42.684;23.360;2023-07-31T05:36:29;16.77;;;13.43;;
80411;SDS011;69749;42.684;23.360;2023-07-31T05:38:54;17.50;;;12.88;;
80411;SDS011;69749;42.684;23.360;2023-07-31T05:41:20;16.38;;;13.43;;
80411;SDS011;69749;42.684;23.360;2023-07-31T05:43:45;15.13;;;12.55;;
80411;SDS011;69749;42.684;23.360;2023-07-31T05:46:11;15.88;;;11.02;;
80411;SDS011;69749;42.684;23.360;2023-07-31T05:48:37;13.35;;;11.45;;
80411;SDS011;69749;42.684;23.360;2023-07-31T05:51:02;14.73;;;11.23;;
80411;SDS011;69749;42.684;23.360;2023-07-31T05:53:28;13.48;;;11.30;;
80411;SDS011;69749;42.684;23.360;2023-07-31T05:55:53;11.40;;;9.65;;
80411;SDS011;69749;42.684;23.360;2023-07-31T05:58:19;12.98;;;10.27;;
80411;SDS011;69749;42.684;23.360;2023-07-31T06:00:44;11.55;;;9.93;;
80411;SDS011;69749;42.684;23.360;2023-07-31T06:03:09;10.90;;;9.05;;
80411;SDS011;69749;42.684;23.360;2023-07-31T06:05:35;10.65;;;8.35;;
80411;SDS011;69749;42.684;23.360;2023-07-31T06:08:01;10.32;;;8.55;;
80411;SDS011;69749;42.684;23.360;2023-07-31T06:10:26;11.02;;;8.88;;
80411;SDS011;69749;42.684;23.360;2023-07-31T06:12:52;9.02;;;7.38;;
80411;SDS011;69749;42.684;23.360;2023-07-31T06:15:17;9.23;;;7.55;;
80411;SDS011;69749;42.684;23.360;2023-07-31T06:17:45;10.73;;;7.90;;
80411;SDS011;69749;42.684;23.360;2023-07-31T06:20:11;9.20;;;7.55;;
80411;SDS011;69749;42.684;23.360;2023-07-31T06:22:36;8.02;;;7.00;;
80411;SDS011;69749;42.684;23.360;2023-07-31T06:25:02;8.00;;;6.18;;
80411;SDS011;69749;42.684;23.360;2023-07-31T06:27:27;8.00;;;7.22;;
80411;SDS011;69749;42.684;23.360;2023-07-31T06:29:53;7.68;;;5.95;;
80411;SDS011;69749;42.684;23.360;2023-07-31T06:32:19;6.60;;;5.47;;
80411;SDS011;69749;42.684;23.360;2023-07-31T06:34:44;5.80;;;5.30;;
80411;SDS011;69749;42.684;23.360;2023-07-31T06:37:10;6.65;;;4.78;;
80411;SDS011;69749;42.684;23.360;2023-07-31T06:39:35;5.40;;;4.88;;
80411;SDS011;69749;42.684;23.360;2023-07-31T06:42:00;5.55;;;4.65;;
80411;SDS011;69749;42.684;23.360;2023-07-31T06:44:26;5.60;;;5.00;;
80411;SDS011;69749;42.684;23.360;2023-07-31T06:46:51;5.95;;;5.35;;
80411;SDS011;69749;42.684;23.360;2023-07-31T06:49:17;7.00;;;4.63;;
80411;SDS011;69749;42.684;23.360;2023-07-31T06:51:42;6.55;;;4.70;;
80411;SDS011;69749;42.684;23.360;2023-07-31T06:54:09;4.68;;;4.28;;
80411;SDS011;69749;42.684;23.360;2023-07-31T06:56:34;6.20;;;4.47;;
80411;SDS011;69749;42.684;23.360;2023-07-31T06:59:00;5.70;;;4.40;;
80411;SDS011;69749;42.684;23.360;2023-07-31T07:01:25;5.13;;;3.95;;
80411;SDS011;69749;42.684;23.360;2023-07-31T07:06:17;5.05;;;3.90;;
80411;SDS011;69749;42.684;23.360;2023-07-31T07:08:43;4.30;;;3.90;;
80411;SDS011;69749;42.684;23.360;2023-07-31T07:13:33;4.90;;;4.43;;
80411;SDS011;69749;42.684;23.360;2023-07-31T07:15:59;4.95;;;3.80;;
80411;SDS011;69749;42.684;23.360;2023-07-31T07:20:50;5.40;;;3.42;;
80411;SDS011;69749;42.684;23.360;2023-07-31T07:23:17;4.00;;;3.60;;
80411;SDS011;69749;42.684;23.360;2023-07-31T07:28:08;5.88;;;3.60;;
80411;SDS011;69749;42.684;23.360;2023-07-31T07:30:34;4.03;;;3.63;;
80411;SDS011;69749;42.684;23.360;2023-07-31T07:32:59;6.95;;;3.88;;
80411;SDS011;69749;42.684;23.360;2023-07-31T07:35:25;7.20;;;4.30;;
80411;SDS011;69749;42.684;23.360;2023-07-31T07:37:50;6.13;;;3.90;;
80411;SDS011;69749;42.684;23.360;2023-07-31T07:40:16;5.05;;;3.53;;
80411;SDS011;69749;42.684;23.360;2023-07-31T07:42:41;4.93;;;3.58;;
80411;SDS011;69749;42.684;23.360;2023-07-31T07:45:07;6.15;;;3.40;;
80411;SDS011;69749;42.684;23.360;2023-07-31T07:47:33;5.05;;;3.58;;
80411;SDS011;69749;42.684;23.360;2023-07-31T07:49:58;5.53;;;3.85;;
80411;SDS011;69749;42.684;23.360;2023-07-31T07:52:24;6.80;;;3.88;;
80411;SDS011;69749;42.684;23.360;2023-07-31T07:54:49;7.35;;;3.75;;
80411;SDS011;69749;42.684;23.360;2023-07-31T07:57:15;5.15;;;3.50;;
80411;SDS011;69749;42.684;23.360;2023-07-31T07:59:40;6.57;;;4.05;;
80411;SDS011;69749;42.684;23.360;2023-07-31T08:02:06;5.78;;;3.58;;
80411;SDS011;69749;42.684;23.360;2023-07-31T08:04:32;3.67;;;3.38;;
80411;SDS011;69749;42.684;23.360;2023-07-31T08:06:57;7.15;;;3.90;;
80411;SDS011;69749;42.684;23.360;2023-07-31T08:09:22;6.65;;;3.42;;
80411;SDS011;69749;42.684;23.360;2023-07-31T08:11:48;5.50;;;3.42;;
80411;SDS011;69749;42.684;23.360;2023-07-31T08:14:13;6.00;;;3.17;;
80411;SDS011;69749;42.684;23.360;2023-07-31T08:16:39;5.70;;;3.78;;
80411;SDS011;69749;42.684;23.360;2023-07-31T08:19:04;5.18;;;3.80;;
80411;SDS011;69749;42.684;23.360;2023-07-31T08:21:29;6.63;;;3.95;;
80411;SDS011;69749;42.684;23.360;2023-07-31T08:26:21;5.10;;;3.53;;
80411;SDS011;69749;42.684;23.360;2023-07-31T08:28:47;4.38;;;3.47;;
80411;SDS011;69749;42.684;23.360;2023-07-31T08:31:12;6.13;;;3.28;;
80411;SDS011;69749;42.684;23.360;2023-07-31T08:33:38;4.07;;;3.20;;
80411;SDS011;69749;42.684;23.360;2023-07-31T08:36:04;5.20;;;3.47;;
80411;SDS011;69749;42.684;23.360;2023-07-31T08:38:30;5.18;;;3.65;;
80411;SDS011;69749;42.684;23.360;2023-07-31T08:40:59;4.88;;;3.70;;
80411;SDS011;69749;42.684;23.360;2023-07-31T08:43:25;4.55;;;3.72;;
80411;SDS011;69749;42.684;23.360;2023-07-31T08:45:51;4.72;;;3.60;;
80411;SDS011;69749;42.684;23.360;2023-07-31T08:48:17;4.53;;;3.30;;
80411;SDS011;69749;42.684;23.360;2023-07-31T08:50:43;3.20;;;2.90;;
80411;SDS011;69749;42.684;23.360;2023-07-31T08:53:09;4.60;;;3.35;;
80411;SDS011;69749;42.684;23.360;2023-07-31T08:55:35;4.03;;;3.47;;
80411;SDS011;69749;42.684;23.360;2023-07-31T08:58:01;5.40;;;3.80;;
80411;SDS011;69749;42.684;23.360;2023-07-31T09:00:28;3.53;;;3.22;;
80411;SDS011;69749;42.684;23.360;2023-07-31T09:02:59;3.80;;;3.28;;
80411;SDS011;69749;42.684;23.360;2023-07-31T09:05:28;7.13;;;3.47;;
80411;SDS011;69749;42.684;23.360;2023-07-31T09:07:56;4.70;;;3.28;;
80411;SDS011;69749;42.684;23.360;2023-07-31T09:10:22;5.38;;;3.70;;
80411;SDS011;69749;42.684;23.360;2023-07-31T09:12:48;4.00;;;3.60;;
80411;SDS011;69749;42.684;23.360;2023-07-31T09:17:39;3.47;;;3.17;;
80411;SDS011;69749;42.684;23.360;2023-07-31T09:20:26;3.70;;;3.40;;
80411;SDS011;69749;42.684;23.360;2023-07-31T09:22:50;3.65;;;3.00;;
80411;SDS011;69749;42.684;23.360;2023-07-31T09:30:11;3.72;;;3.20;;
80411;SDS011;69749;42.684;23.360;2023-07-31T09:32:36;5.00;;;3.15;;
80411;SDS011;69749;42.684;23.360;2023-07-31T09:35:12;5.35;;;3.22;;
80411;SDS011;69749;42.684;23.360;2023-07-31T09:37:57;4.63;;;3.33;;
80411;SDS011;69749;42.684;23.360;2023-07-31T09:40:31;4.60;;;3.80;;
80411;SDS011;69749;42.684;23.360;2023-07-31T09:42:58;4.60;;;3.30;;
80411;SDS011;69749;42.684;23.360;2023-07-31T09:45:25;5.53;;;4.15;;
80411;SDS011;69749;42.684;23.360;2023-07-31T09:47:51;4.38;;;3.10;;
80411;SDS011;69749;42.684;23.360;2023-07-31T09:50:17;4.43;;;2.92;;
80411;SDS011;69749;42.684;23.360;2023-07-31T09:52:44;5.97;;;3.88;;
80411;SDS011;69749;42.684;23.360;2023-07-31T09:55:10;4.15;;;3.05;;
80411;SDS011;69749;42.684;23.360;2023-07-31T09:57:39;6.05;;;3.08;;
80411;SDS011;69749;42.684;23.360;2023-07-31T10:00:09;4.30;;;3.42;;
80411;SDS011;69749;42.684;23.360;2023-07-31T10:02:36;4.20;;;3.20;;
80411;SDS011;69749;42.684;23.360;2023-07-31T10:05:02;3.17;;;2.83;;
80411;SDS011;69749;42.684;23.360;2023-07-31T10:09:55;2.90;;;2.50;;
80411;SDS011;69749;42.684;23.360;2023-07-31T10:12:25;4.95;;;3.10;;
80411;SDS011;69749;42.684;23.360;2023-07-31T10:14:54;4.75;;;2.53;;
80411;SDS011;69749;42.684;23.360;2023-07-31T10:17:19;3.40;;;3.10;;
80411;SDS011;69749;42.684;23.360;2023-07-31T10:19:47;3.40;;;2.63;;
80411;SDS011;69749;42.684;23.360;2023-07-31T10:24:39;4.40;;;2.83;;
80411;SDS011;69749;42.684;23.360;2023-07-31T10:27:05;3.72;;;2.45;;
80411;SDS011;69749;42.684;23.360;2023-07-31T10:29:32;2.97;;;2.50;;
80411;SDS011;69749;42.684;23.360;2023-07-31T10:31:58;4.50;;;2.95;;
80411;SDS011;69749;42.684;23.360;2023-07-31T10:34:25;4.82;;;2.33;;
80411;SDS011;69749;42.684;23.360;2023-07-31T10:36:56;5.88;;;2.45;;
80411;SDS011;69749;42.684;23.360;2023-07-31T10:40:10;3.17;;;2.30;;
80411;SDS011;69749;42.684;23.360;2023-07-31T10:42:48;4.15;;;2.10;;
80411;SDS011;69749;42.684;23.360;2023-07-31T10:45:14;4.05;;;2.55;;
80411;SDS011;69749;42.684;23.360;2023-07-31T10:47:48;4.32;;;2.67;;
80411;SDS011;69749;42.684;23.360;2023-07-31T10:52:53;2.83;;;2.30;;
80411;SDS011;69749;42.684;23.360;2023-07-31T10:55:27;3.10;;;2.40;;
80411;SDS011;69749;42.684;23.360;2023-07-31T10:58:12;3.10;;;1.92;;
80411;SDS011;69749;42.684;23.360;2023-07-31T11:00:42;3.20;;;2.42;;
80411;SDS011;69749;42.684;23.360;2023-07-31T11:03:18;4.07;;;2.40;;
80411;SDS011;69749;42.684;23.360;2023-07-31T11:10:42;3.70;;;2.25;;
80411;SDS011;69749;42.684;23.360;2023-07-31T11:13:11;2.30;;;2.10;;
80411;SDS011;69749;42.684;23.360;2023-07-31T11:15:36;3.90;;;2.35;;
80411;SDS011;69749;42.684;23.360;2023-07-31T11:18:02;3.65;;;2.05;;
80411;SDS011;69749;42.684;23.360;2023-07-31T11:20:30;2.10;;;1.88;;
80411;SDS011;69749;42.684;23.360;2023-07-31T11:23:03;7.43;;;2.33;;
80411;SDS011;69749;42.684;23.360;2023-07-31T11:25:30;2.72;;;2.30;;
80411;SDS011;69749;42.684;23.360;2023-07-31T11:27:57;3.88;;;2.20;;
80411;SDS011;69749;42.684;23.360;2023-07-31T11:30:27;4.82;;;2.00;;
80411;SDS011;69749;42.684;23.360;2023-07-31T11:32:53;3.53;;;2.10;;
80411;SDS011;69749;42.684;23.360;2023-07-31T11:35:20;3.22;;;2.00;;
80411;SDS011;69749;42.684;23.360;2023-07-31T11:37:46;3.38;;;1.95;;
80411;SDS011;69749;42.684;23.360;2023-07-31T11:40:11;2.75;;;2.10;;
80411;SDS011;69749;42.684;23.360;2023-07-31T11:42:37;3.95;;;2.30;;
80411;SDS011;69749;42.684;23.360;2023-07-31T11:45:03;2.95;;;2.38;;
80411;SDS011;69749;42.684;23.360;2023-07-31T11:47:30;4.43;;;2.72;;
80411;SDS011;69749;42.684;23.360;2023-07-31T11:49:59;4.50;;;2.60;;
80411;SDS011;69749;42.684;23.360;2023-07-31T11:52:25;4.30;;;2.88;;
80411;SDS011;69749;42.684;23.360;2023-07-31T11:54:51;5.22;;;3.78;;
80411;SDS011;69749;42.684;23.360;2023-07-31T11:57:17;6.97;;;3.00;;
80411;SDS011;69749;42.684;23.360;2023-07-31T11:59:44;4.05;;;2.63;;
80411;SDS011;69749;42.684;23.360;2023-07-31T12:02:09;2.97;;;2.60;;
80411;SDS011;69749;42.684;23.360;2023-07-31T12:04:35;4.03;;;2.70;;
80411;SDS011;69749;42.684;23.360;2023-07-31T12:07:01;4.00;;;2.70;;
80411;SDS011;69749;42.684;23.360;2023-07-31T12:09:26;4.95;;;2.78;;
80411;SDS011;69749;42.684;23.360;2023-07-31T12:11:51;4.43;;;2.78;;
80411;SDS011;69749;42.684;23.360;2023-07-31T12:14:28;4.90;;;3.20;;
80411;SDS011;69749;42.684;23.360;2023-07-31T12:16:54;6.47;;;3.45;;
80411;SDS011;69749;42.684;23.360;2023-07-31T12:21:46;6.07;;;3.28;;
80411;SDS011;69749;42.684;23.360;2023-07-31T12:24:12;4.25;;;2.97;;
80411;SDS011;69749;42.684;23.360;2023-07-31T12:26:37;5.63;;;4.15;;
80411;SDS011;69749;42.684;23.360;2023-07-31T12:29:04;6.80;;;4.32;;
80411;SDS011;69749;42.684;23.360;2023-07-31T12:31:33;6.00;;;4.47;;
80411;SDS011;69749;42.684;23.360;2023-07-31T12:33:59;5.65;;;4.45;;
80411;SDS011;69749;42.684;23.360;2023-07-31T12:36:24;5.65;;;4.88;;
80411;SDS011;69749;42.684;23.360;2023-07-31T12:38:50;5.05;;;4.55;;
80411;SDS011;69749;42.684;23.360;2023-07-31T12:43:43;6.78;;;5.72;;
80411;SDS011;69749;42.684;23.360;2023-07-31T12:46:09;6.32;;;4.78;;
80411;SDS011;69749;42.684;23.360;2023-07-31T12:48:35;5.78;;;4.35;;
80411;SDS011;69749;42.684;23.360;2023-07-31T12:53:27;7.20;;;5.38;;
80411;SDS011;69749;42.684;23.360;2023-07-31T12:55:54;5.90;;;5.30;;
80411;SDS011;69749;42.684;23.360;2023-07-31T12:58:20;5.72;;;4.82;;
80411;SDS011;69749;42.684;23.360;2023-07-31T13:00:45;6.60;;;4.85;;
80411;SDS011;69749;42.684;23.360;2023-07-31T13:03:11;6.82;;;5.68;;
80411;SDS011;69749;42.684;23.360;2023-07-31T13:05:36;6.45;;;5.85;;
80411;SDS011;69749;42.684;23.360;2023-07-31T13:08:02;6.03;;;5.45;;
80411;SDS011;69749;42.684;23.360;2023-07-31T13:10:27;6.57;;;5.82;;
80411;SDS011;69749;42.684;23.360;2023-07-31T13:12:53;8.93;;;5.78;;
80411;SDS011;69749;42.684;23.360;2023-07-31T13:15:19;8.73;;;5.85;;
80411;SDS011;69749;42.684;23.360;2023-07-31T13:17:45;7.50;;;6.13;;
80411;SDS011;69749;42.684;23.360;2023-07-31T13:20:11;7.88;;;6.18;;
80411;SDS011;69749;42.684;23.360;2023-07-31T13:22:36;6.32;;;5.30;;
80411;SDS011;69749;42.684;23.360;2023-07-31T13:25:02;8.85;;;5.80;;
80411;SDS011;69749;42.684;23.360;2023-07-31T13:27:28;6.82;;;5.38;;
80411;SDS011;69749;42.684;23.360;2023-07-31T13:29:53;7.15;;;5.25;;
80411;SDS011;69749;42.684;23.360;2023-07-31T13:32:19;7.43;;;5.20;;
80411;SDS011;69749;42.684;23.360;2023-07-31T13:34:46;5.57;;;4.60;;
80411;SDS011;69749;42.684;23.360;2023-07-31T13:37:12;4.90;;;4.40;;
80411;SDS011;69749;42.684;23.360;2023-07-31T13:39:38;6.45;;;4.88;;
80411;SDS011;69749;42.684;23.360;2023-07-31T13:42:04;5.72;;;4.45;;
80411;SDS011;69749;42.684;23.360;2023-07-31T13:44:32;6.70;;;5.15;;
80411;SDS011;69749;42.684;23.360;2023-07-31T13:47:00;7.20;;;4.68;;
80411;SDS011;69749;42.684;23.360;2023-07-31T13:49:27;5.53;;;4.78;;
80411;SDS011;69749;42.684;23.360;2023-07-31T13:51:52;6.28;;;4.80;;
80411;SDS011;69749;42.684;23.360;2023-07-31T13:54:18;4.85;;;4.35;;
80411;SDS011;69749;42.684;23.360;2023-07-31T13:56:43;5.22;;;4.72;;
80411;SDS011;69749;42.684;23.360;2023-07-31T13:59:10;4.70;;;4.15;;
80411;SDS011;69749;42.684;23.360;2023-07-31T14:01:35;5.00;;;4.50;;
80411;SDS011;69749;42.684;23.360;2023-07-31T14:04:01;5.20;;;4.30;;
80411;SDS011;69749;42.684;23.360;2023-07-31T14:06:27;4.35;;;3.95;;
80411;SDS011;69749;42.684;23.360;2023-07-31T14:08:52;7.22;;;4.13;;
80411;SDS011;69749;42.684;23.360;2023-07-31T14:11:17;9.80;;;6.95;;
80411;SDS011;69749;42.684;23.360;2023-07-31T14:13:43;6.85;;;4.97;;
80411;SDS011;69749;42.684;23.360;2023-07-31T14:16:08;9.55;;;5.07;;
80411;SDS011;69749;42.684;23.360;2023-07-31T14:18:34;4.80;;;4.35;;
80411;SDS011;69749;42.684;23.360;2023-07-31T14:20:59;6.07;;;4.28;;
80411;SDS011;69749;42.684;23.360;2023-07-31T14:23:25;4.68;;;4.22;;
80411;SDS011;69749;42.684;23.360;2023-07-31T14:25:50;4.82;;;4.32;;
80411;SDS011;69749;42.684;23.360;2023-07-31T14:28:15;5.35;;;4.68;;
80411;SDS011;69749;42.684;23.360;2023-07-31T14:30:41;6.15;;;4.70;;
80411;SDS011;69749;42.684;23.360;2023-07-31T14:33:07;10.98;;;5.00;;
80411;SDS011;69749;42.684;23.360;2023-07-31T14:35:33;6.20;;;4.43;;
80411;SDS011;69749;42.684;23.360;2023-07-31T14:37:59;8.45;;;4.57;;
80411;SDS011;69749;42.684;23.360;2023-07-31T14:40:24;5.18;;;4.15;;
80411;SDS011;69749;42.684;23.360;2023-07-31T14:42:50;4.45;;;3.97;;
80411;SDS011;69749;42.684;23.360;2023-07-31T14:45:15;4.82;;;4.40;;
80411;SDS011;69749;42.684;23.360;2023-07-31T14:47:41;4.78;;;4.28;;
80411;SDS011;69749;42.684;23.360;2023-07-31T14:50:06;5.68;;;3.97;;
80411;SDS011;69749;42.684;23.360;2023-07-31T14:52:32;5.25;;;4.55;;
80411;SDS011;69749;42.684;23.360;2023-07-31T14:54:57;4.60;;;4.20;;
80411;SDS011;69749;42.684;23.360;2023-07-31T14:57:22;5.30;;;4.00;;
80411;SDS011;69749;42.684;23.360;2023-07-31T14:59:48;4.28;;;3.80;;
80411;SDS011;69749;42.684;23.360;2023-07-31T15:02:14;10.20;;;4.70;;
80411;SDS011;69749;42.684;23.360;2023-07-31T15:04:40;4.80;;;4.13;;
80411;SDS011;69749;42.684;23.360;2023-07-31T15:07:05;4.75;;;4.25;;
80411;SDS011;69749;42.684;23.360;2023-07-31T15:09:31;4.72;;;4.05;;
80411;SDS011;69749;42.684;23.360;2023-07-31T15:11:56;4.93;;;3.72;;